Forside
METAR-TAF:

METAR-TAF

Lufthavne :

Piešťany, Slovakiet

Breddekreds: 48-37-30N, længdekreds: 017-49-43E, højde: 163 m

Aktuelle vejr

Denne rapport blev lavet for 31 minutter siden, kl. 23:00 UTC
Vind 1 kt fra nord
Temperatur 9°C
Fugtighed 93%
Tryk 1027 hPa
Sigt 10 km eller mere

METAR: LZPP 122300Z AUTO 01001KT 9999 NCD 09/08 Q1027

Tid: 01:31 (23:31 UTC)

Vejrudsigter

Denne rapport blev lavet for 6 timer og 16 minutter siden, kl. 17:15 UTC
Foreløbig gælder fra 12 på 18 UTC til 13 på 03 UTC
Vind 4 kt fra nord
Sigt 10 km eller mere
ingen skyer under 1500m og ingen cumulonimbus

TAF: LZPP 121715Z 1218/1303 01004KT CAVOK

Vejrobservationer og prognoser fra mere end 4000 lufthavne (METAR og TAF).

De gule og røde prikker repræsenterer de meteorologiske stationer.

Flyt musen over at se navnet på stationen.

Så klik over at se vejr observationer og prognoser.

At skifte det kort: Klik på de grønne knapper med et sort kors for at zoome ind; på den grønne knap med en bindestreg for at zoome ud; eller på de grønne pile for tilstødende kort.


METAR-TAF: